createdAt,value
2017-12-31T00:01:51.493Z,85.00
2017-12-31T00:04:19.576Z,84.90
2017-12-31T00:06:47.150Z,84.60
2017-12-31T00:09:14.726Z,84.90
2017-12-31T00:11:42.369Z,85.10
2017-12-31T00:14:09.941Z,85.00
2017-12-31T00:16:37.560Z,84.50
2017-12-31T00:19:05.129Z,84.90
2017-12-31T00:21:33.052Z,85.10
2017-12-31T00:24:01.398Z,84.50
2017-12-31T00:26:29.902Z,84.40
2017-12-31T00:28:57.517Z,84.80
2017-12-31T00:31:25.159Z,84.40
2017-12-31T00:33:52.781Z,84.60
2017-12-31T00:36:20.365Z,84.50
2017-12-31T00:38:47.996Z,84.80
2017-12-31T00:41:15.585Z,84.60
2017-12-31T00:43:44.232Z,84.30
2017-12-31T00:46:11.810Z,84.30
2017-12-31T00:48:39.384Z,84.30
2017-12-31T00:51:07.796Z,84.60
2017-12-31T00:53:35.387Z,84.60
2017-12-31T00:56:04.579Z,84.80
2017-12-31T00:58:32.171Z,84.70
2017-12-31T01:01:00.968Z,83.50
2017-12-31T01:03:29.313Z,84.20
2017-12-31T01:05:56.883Z,84.10
2017-12-31T01:08:24.509Z,84.30
2017-12-31T01:10:52.101Z,84.40
2017-12-31T01:13:19.717Z,84.50
2017-12-31T01:15:47.318Z,84.60
2017-12-31T01:18:15.364Z,84.20
2017-12-31T01:20:43.161Z,84.40
2017-12-31T01:23:12.232Z,84.30
2017-12-31T01:25:39.865Z,84.20
2017-12-31T01:28:07.454Z,84.70
2017-12-31T01:30:35.093Z,84.70
2017-12-31T01:33:02.673Z,84.40
2017-12-31T01:35:30.296Z,84.70
2017-12-31T01:37:57.867Z,84.40
2017-12-31T01:40:25.759Z,84.70
2017-12-31T01:42:53.347Z,84.40
2017-12-31T01:45:20.919Z,84.70
2017-12-31T01:47:49.305Z,84.90
2017-12-31T01:50:19.600Z,84.90
2017-12-31T01:52:47.233Z,85.20
2017-12-31T01:55:14.829Z,85.40
2017-12-31T01:57:42.888Z,85.60
2017-12-31T02:00:10.715Z,85.60
2017-12-31T02:02:38.289Z,85.50
2017-12-31T02:05:05.939Z,85.50
2017-12-31T02:07:33.508Z,85.50
2017-12-31T02:10:01.403Z,85.60
2017-12-31T02:12:28.988Z,85.70
2017-12-31T02:14:56.567Z,85.70
2017-12-31T02:17:24.968Z,85.90
2017-12-31T02:19:52.538Z,85.90
2017-12-31T02:22:20.226Z,85.80
2017-12-31T02:24:47.808Z,85.90
2017-12-31T02:27:16.477Z,85.90
2017-12-31T02:29:44.162Z,85.90
2017-12-31T02:32:12.523Z,86.20
2017-12-31T02:34:40.133Z,86.20
2017-12-31T02:37:07.709Z,86.20
2017-12-31T02:39:35.791Z,86.50
2017-12-31T02:42:03.381Z,86.70
2017-12-31T02:44:31.152Z,86.70
2017-12-31T02:46:59.524Z,87.20
2017-12-31T02:49:27.102Z,87.20
2017-12-31T02:51:55.946Z,87.20
2017-12-31T02:54:23.520Z,87.20
2017-12-31T02:56:52.609Z,87.30
2017-12-31T02:59:20.233Z,87.20
2017-12-31T03:01:47.822Z,87.20
2017-12-31T03:04:15.437Z,87.20
2017-12-31T03:06:43.019Z,87.20
2017-12-31T03:09:11.012Z,87.30
2017-12-31T03:11:38.592Z,87.60
2017-12-31T03:14:06.166Z,87.50
2017-12-31T03:16:34.573Z,87.30
2017-12-31T03:19:02.297Z,87.90
2017-12-31T03:21:30.120Z,87.30
2017-12-31T03:23:57.885Z,87.20
2017-12-31T03:26:25.465Z,87.30
2017-12-31T03:28:53.080Z,87.20
2017-12-31T03:31:20.653Z,87.20
2017-12-31T03:33:48.300Z,87.20
2017-12-31T03:36:15.908Z,87.40
2017-12-31T03:38:43.574Z,87.80
2017-12-31T03:41:11.151Z,88.00
2017-12-31T03:43:38.719Z,87.90
2017-12-31T03:46:07.090Z,88.10
2017-12-31T03:48:34.657Z,88.10
2017-12-31T03:51:03.030Z,88.60
2017-12-31T03:53:30.612Z,88.30
2017-12-31T03:55:59.077Z,88.30
2017-12-31T03:58:27.432Z,88.50
2017-12-31T04:00:57.021Z,88.50
2017-12-31T04:03:24.585Z,88.50
2017-12-31T04:05:52.160Z,88.40
2017-12-31T04:08:19.781Z,88.50
2017-12-31T04:10:47.361Z,88.60
2017-12-31T04:13:15.276Z,88.50
2017-12-31T04:15:42.852Z,88.50
2017-12-31T04:18:10.433Z,88.60
2017-12-31T04:20:38.048Z,88.30
2017-12-31T04:23:06.376Z,89.00
2017-12-31T04:25:33.981Z,89.00
2017-12-31T04:28:01.561Z,89.40
2017-12-31T04:30:29.196Z,89.80
2017-12-31T04:32:56.764Z,89.70
2017-12-31T04:35:24.700Z,89.90
2017-12-31T04:37:52.296Z,90.00
2017-12-31T04:40:19.872Z,90.10
2017-12-31T04:42:47.499Z,90.20
2017-12-31T04:45:16.980Z,90.40
2017-12-31T04:47:44.602Z,90.50
2017-12-31T04:50:12.180Z,90.50
2017-12-31T04:52:39.810Z,90.50
2017-12-31T04:55:08.154Z,90.40
2017-12-31T04:57:36.096Z,90.40
2017-12-31T05:00:03.674Z,90.40
2017-12-31T05:02:31.257Z,90.40
2017-12-31T05:04:58.962Z,90.40
2017-12-31T05:07:26.549Z,90.50
2017-12-31T05:09:54.251Z,90.40
2017-12-31T05:12:22.604Z,90.50
2017-12-31T05:14:51.246Z,90.60
2017-12-31T05:17:18.850Z,90.60
2017-12-31T05:19:46.434Z,90.70
2017-12-31T05:22:14.016Z,90.80
2017-12-31T05:24:41.595Z,90.80
2017-12-31T05:27:09.212Z,90.90
2017-12-31T05:29:36.782Z,90.90
2017-12-31T05:32:05.282Z,91.00
2017-12-31T05:34:32.860Z,91.00
2017-12-31T05:37:01.373Z,91.10
2017-12-31T05:39:29.060Z,91.20
2017-12-31T05:41:57.402Z,91.30
2017-12-31T05:44:25.008Z,91.30
2017-12-31T05:46:53.476Z,91.60
2017-12-31T05:49:21.869Z,91.80
2017-12-31T05:51:49.462Z,91.70
2017-12-31T05:54:17.081Z,91.80
2017-12-31T05:56:45.421Z,91.90
2017-12-31T05:59:13.385Z,91.90
2017-12-31T06:01:40.963Z,91.90
2017-12-31T06:04:08.537Z,91.90
2017-12-31T06:06:36.915Z,92.10
2017-12-31T06:09:04.493Z,92.10
2017-12-31T06:11:32.873Z,92.10
2017-12-31T06:14:00.452Z,92.10
2017-12-31T06:16:28.439Z,92.20
2017-12-31T06:18:56.017Z,92.30
2017-12-31T06:21:23.594Z,92.30
2017-12-31T06:23:51.216Z,92.30
2017-12-31T06:26:18.789Z,92.30
2017-12-31T06:28:46.406Z,92.30
2017-12-31T06:31:13.984Z,92.30
2017-12-31T06:33:41.601Z,92.30
2017-12-31T06:36:09.194Z,92.30
2017-12-31T06:38:37.237Z,92.30
2017-12-31T06:41:05.570Z,92.40
2017-12-31T06:43:33.152Z,92.30
2017-12-31T06:46:00.779Z,92.30
2017-12-31T06:48:28.362Z,92.30
2017-12-31T06:50:55.985Z,92.30
2017-12-31T06:53:23.551Z,92.30
2017-12-31T06:55:51.173Z,92.30
2017-12-31T06:58:18.745Z,92.30
2017-12-31T07:00:46.796Z,92.20
2017-12-31T07:03:14.366Z,92.20
2017-12-31T07:05:41.941Z,92.20
2017-12-31T07:08:10.321Z,92.10
2017-12-31T07:10:37.901Z,92.10
2017-12-31T07:13:05.532Z,92.10
2017-12-31T07:15:33.867Z,92.00
2017-12-31T07:18:01.828Z,92.00
2017-12-31T07:20:29.396Z,92.00
2017-12-31T07:22:56.976Z,92.00
2017-12-31T07:25:24.588Z,92.00
2017-12-31T07:27:52.209Z,92.00
2017-12-31T07:30:19.842Z,92.00
2017-12-31T07:32:47.425Z,92.00
2017-12-31T07:35:15.038Z,92.10
2017-12-31T07:37:42.610Z,92.30
2017-12-31T07:40:10.581Z,92.10
2017-12-31T07:42:38.152Z,92.10
2017-12-31T07:45:05.728Z,92.10
2017-12-31T07:47:33.338Z,92.10
2017-12-31T07:50:00.915Z,92.10
2017-12-31T07:52:28.525Z,92.10
2017-12-31T07:54:56.136Z,92.00
2017-12-31T07:57:23.741Z,92.00
2017-12-31T07:59:51.336Z,92.10
2017-12-31T08:02:19.470Z,92.00
2017-12-31T08:04:47.044Z,91.90
2017-12-31T08:07:15.385Z,92.00
2017-12-31T08:09:43.181Z,92.00
2017-12-31T08:12:11.525Z,92.10
2017-12-31T08:14:39.133Z,92.10
2017-12-31T08:17:06.700Z,92.10
2017-12-31T08:19:34.737Z,92.10
2017-12-31T08:22:02.305Z,92.10
2017-12-31T08:24:30.643Z,92.30
2017-12-31T08:26:58.244Z,92.30
2017-12-31T08:29:26.632Z,92.40
2017-12-31T08:31:54.264Z,92.30
2017-12-31T08:36:55.677Z,92.30
2017-12-31T08:39:23.257Z,92.40
2017-12-31T08:41:51.132Z,92.40
2017-12-31T08:44:18.710Z,92.40
2017-12-31T08:46:46.293Z,92.40
2017-12-31T08:49:14.680Z,92.50
2017-12-31T08:51:42.266Z,92.40
2017-12-31T08:54:09.881Z,92.50
2017-12-31T08:56:37.464Z,92.50
2017-12-31T08:59:05.108Z,92.50
2017-12-31T09:01:32.685Z,92.50
2017-12-31T09:04:01.473Z,92.50
2017-12-31T09:06:29.229Z,92.50
2017-12-31T09:08:57.581Z,92.50
2017-12-31T09:11:25.377Z,92.50
2017-12-31T09:13:53.721Z,92.50
2017-12-31T09:16:21.353Z,92.50
2017-12-31T09:18:48.929Z,92.40
2017-12-31T09:21:16.992Z,92.50
2017-12-31T09:23:44.582Z,92.50
2017-12-31T09:26:12.150Z,92.50
2017-12-31T09:28:39.795Z,92.50
2017-12-31T09:31:07.389Z,92.60
2017-12-31T09:33:34.996Z,92.50
2017-12-31T09:36:02.565Z,92.20
2017-12-31T09:38:30.442Z,92.10
2017-12-31T09:40:58.024Z,92.20
2017-12-31T09:43:25.849Z,91.80
2017-12-31T09:45:53.586Z,92.00
2017-12-31T09:48:21.161Z,92.00
2017-12-31T09:50:48.954Z,92.00
2017-12-31T09:53:16.555Z,91.90
2017-12-31T09:55:45.508Z,92.00
2017-12-31T09:58:13.105Z,91.80
2017-12-31T10:00:40.741Z,91.70
2017-12-31T10:03:08.359Z,91.80
2017-12-31T10:05:35.962Z,91.70
2017-12-31T10:08:03.697Z,91.80
2017-12-31T10:10:31.352Z,92.00
2017-12-31T10:12:59.246Z,91.70
2017-12-31T10:15:27.621Z,91.30
2017-12-31T10:17:55.218Z,91.30
2017-12-31T10:20:24.062Z,91.00
2017-12-31T10:22:51.677Z,90.80
2017-12-31T10:25:19.334Z,90.80
2017-12-31T10:27:46.907Z,90.90
2017-12-31T10:30:14.528Z,90.90
2017-12-31T10:35:16.464Z,90.60
2017-12-31T10:37:44.037Z,90.30
2017-12-31T10:40:11.768Z,90.40
2017-12-31T10:42:39.389Z,90.30
2017-12-31T10:45:06.968Z,90.20
2017-12-31T10:47:35.371Z,90.20
2017-12-31T10:50:02.962Z,90.20
2017-12-31T10:52:30.853Z,90.10
2017-12-31T10:54:58.429Z,90.00
2017-12-31T10:57:26.783Z,89.90
2017-12-31T10:59:54.405Z,89.90
2017-12-31T11:02:24.814Z,89.50
2017-12-31T11:04:52.484Z,89.10
2017-12-31T11:07:20.072Z,88.60
2017-12-31T11:09:47.649Z,88.60
2017-12-31T11:12:15.259Z,88.60
2017-12-31T11:14:42.953Z,88.60
2017-12-31T11:17:10.567Z,88.30
2017-12-31T11:19:38.166Z,87.70
2017-12-31T11:22:06.157Z,88.00
2017-12-31T11:24:33.733Z,87.70
2017-12-31T11:27:01.322Z,87.70
2017-12-31T11:29:28.928Z,87.70
2017-12-31T11:31:56.528Z,87.60
2017-12-31T11:34:24.350Z,87.60
2017-12-31T11:36:51.978Z,87.50
2017-12-31T11:39:19.979Z,87.50
2017-12-31T11:41:47.571Z,87.60
2017-12-31T11:44:15.149Z,87.50
2017-12-31T11:46:43.527Z,87.00
2017-12-31T11:49:11.112Z,87.00
2017-12-31T11:51:38.735Z,86.70
2017-12-31T11:54:07.111Z,87.00
2017-12-31T11:56:35.064Z,86.80
2017-12-31T11:59:02.630Z,86.80
2017-12-31T12:01:30.386Z,86.70
2017-12-31T12:03:58.020Z,86.80
2017-12-31T12:06:25.593Z,86.60
2017-12-31T12:08:53.240Z,86.30
2017-12-31T12:11:20.819Z,86.50
2017-12-31T12:13:48.720Z,86.60
2017-12-31T12:16:17.073Z,85.80
2017-12-31T12:18:44.665Z,85.70
2017-12-31T12:21:13.095Z,86.00
2017-12-31T12:23:40.757Z,85.90
2017-12-31T12:26:08.367Z,86.40
2017-12-31T12:28:35.950Z,86.00
2017-12-31T12:31:03.589Z,86.20
2017-12-31T12:33:31.922Z,86.10
2017-12-31T12:35:59.881Z,86.00
2017-12-31T12:38:27.468Z,86.10
2017-12-31T12:40:55.045Z,85.50
2017-12-31T12:43:23.429Z,85.20
2017-12-31T12:45:51.016Z,85.20
2017-12-31T12:48:18.626Z,85.30
2017-12-31T12:50:46.213Z,84.90
2017-12-31T12:53:14.144Z,84.70
2017-12-31T12:55:41.971Z,84.70
2017-12-31T12:58:09.548Z,84.60
2017-12-31T13:00:37.164Z,84.70
2017-12-31T13:03:05.519Z,84.70
2017-12-31T13:05:33.382Z,84.60
2017-12-31T13:08:01.179Z,84.60
2017-12-31T13:10:28.808Z,84.70
2017-12-31T13:12:56.369Z,84.60
2017-12-31T13:15:24.325Z,84.60
2017-12-31T13:17:51.921Z,84.60
2017-12-31T13:20:19.501Z,84.50
2017-12-31T13:22:47.143Z,84.50
2017-12-31T13:25:15.496Z,84.60
2017-12-31T13:27:43.132Z,84.40
2017-12-31T13:30:10.701Z,84.20
2017-12-31T13:32:38.332Z,84.40
2017-12-31T13:35:06.138Z,84.30
2017-12-31T13:37:35.729Z,84.20
2017-12-31T13:40:03.336Z,84.20
2017-12-31T13:42:30.918Z,84.20
2017-12-31T13:44:58.717Z,84.20
2017-12-31T13:47:26.289Z,84.10
2017-12-31T13:49:55.417Z,84.00
2017-12-31T13:52:23.190Z,84.00
2017-12-31T13:54:51.992Z,84.00
2017-12-31T13:57:19.586Z,84.00
2017-12-31T13:59:47.174Z,84.00
2017-12-31T14:02:14.789Z,83.90
2017-12-31T14:04:42.370Z,83.70
2017-12-31T14:07:09.994Z,83.90
2017-12-31T14:09:37.574Z,83.90
2017-12-31T14:12:05.492Z,83.90
2017-12-31T14:14:33.837Z,84.40
2017-12-31T14:17:01.734Z,84.40
2017-12-31T14:19:29.346Z,83.90
2017-12-31T14:21:56.929Z,83.90
2017-12-31T14:24:24.554Z,84.00
2017-12-31T14:26:52.134Z,84.00
2017-12-31T14:29:20.034Z,84.00
2017-12-31T14:31:47.644Z,84.10
2017-12-31T14:34:15.240Z,84.10
2017-12-31T14:36:42.873Z,84.00
2017-12-31T14:39:13.030Z,84.10
2017-12-31T14:41:42.985Z,84.20
2017-12-31T14:44:10.925Z,84.10
2017-12-31T14:46:39.418Z,84.10
2017-12-31T14:49:08.569Z,84.10
2017-12-31T14:51:37.001Z,84.70
2017-12-31T14:54:05.999Z,84.10
2017-12-31T14:56:34.009Z,84.10
2017-12-31T14:59:02.121Z,84.10
2017-12-31T15:01:31.533Z,84.10
2017-12-31T15:04:01.420Z,84.10
2017-12-31T15:06:29.394Z,84.00
2017-12-31T15:08:57.295Z,84.00
2017-12-31T15:11:25.065Z,84.00
2017-12-31T15:13:54.063Z,83.90
2017-12-31T15:16:21.747Z,83.90
2017-12-31T15:18:49.342Z,83.90
2017-12-31T15:21:17.389Z,84.00
2017-12-31T15:23:44.985Z,83.90
2017-12-31T15:26:12.579Z,83.80
2017-12-31T15:28:40.251Z,83.90
2017-12-31T15:31:08.620Z,84.00
2017-12-31T15:33:36.251Z,84.30
2017-12-31T15:36:03.848Z,84.40
2017-12-31T15:38:31.533Z,84.00
2017-12-31T15:40:59.156Z,84.60
2017-12-31T15:43:27.160Z,84.30
2017-12-31T15:45:54.876Z,84.60
2017-12-31T15:48:23.231Z,83.80
2017-12-31T15:50:50.845Z,83.80
2017-12-31T15:53:18.678Z,84.10
2017-12-31T15:55:47.292Z,84.40
2017-12-31T15:58:14.865Z,84.40
2017-12-31T16:00:42.867Z,84.50
2017-12-31T16:03:10.463Z,84.80
2017-12-31T16:05:38.930Z,84.80
2017-12-31T16:08:09.001Z,85.10
2017-12-31T16:10:36.590Z,85.10
2017-12-31T16:13:06.218Z,84.80
2017-12-31T16:15:33.830Z,84.80
2017-12-31T16:18:01.901Z,84.80
2017-12-31T16:20:29.517Z,85.00
2017-12-31T16:22:57.100Z,85.30
2017-12-31T16:25:24.760Z,85.10
2017-12-31T16:27:52.358Z,85.10
2017-12-31T16:30:21.679Z,85.10
2017-12-31T16:32:49.589Z,85.20
2017-12-31T16:35:17.829Z,85.00
2017-12-31T16:40:19.690Z,85.30
2017-12-31T16:42:47.319Z,85.00
2017-12-31T16:45:15.380Z,85.10
2017-12-31T16:47:43.688Z,85.20
2017-12-31T16:50:11.268Z,85.10
2017-12-31T16:52:39.761Z,85.30
2017-12-31T16:55:07.351Z,85.30
2017-12-31T16:57:35.341Z,85.20
2017-12-31T17:00:02.930Z,85.10
2017-12-31T17:02:31.344Z,85.20
2017-12-31T17:04:59.004Z,85.20
2017-12-31T17:07:26.552Z,85.30
2017-12-31T17:09:54.948Z,85.50
2017-12-31T17:12:22.532Z,85.50
2017-12-31T17:14:50.435Z,85.70
2017-12-31T17:17:18.013Z,85.40
2017-12-31T17:19:46.346Z,85.50
2017-12-31T17:22:13.985Z,85.50
2017-12-31T17:24:41.565Z,85.40
2017-12-31T17:27:09.184Z,85.50
2017-12-31T17:29:36.793Z,85.50
2017-12-31T17:32:04.780Z,85.50
2017-12-31T17:34:32.374Z,85.70
2017-12-31T17:37:00.055Z,85.80
2017-12-31T17:39:27.681Z,85.50
2017-12-31T17:41:55.298Z,85.50
2017-12-31T17:44:22.927Z,85.40
2017-12-31T17:46:50.513Z,85.20
2017-12-31T17:49:18.602Z,85.10
2017-12-31T17:51:46.217Z,84.80
2017-12-31T17:54:13.799Z,85.10
2017-12-31T17:56:41.423Z,85.00
2017-12-31T17:59:09.836Z,85.10
2017-12-31T18:01:37.658Z,85.10
2017-12-31T18:04:06.003Z,85.20
2017-12-31T18:06:33.902Z,85.20
2017-12-31T18:09:02.254Z,85.10
2017-12-31T18:11:29.841Z,85.00
2017-12-31T18:13:58.240Z,85.10
2017-12-31T18:16:26.032Z,85.10
2017-12-31T18:18:53.648Z,84.90
2017-12-31T18:21:22.000Z,84.70
2017-12-31T18:23:49.634Z,84.70
2017-12-31T18:26:17.221Z,84.60
2017-12-31T18:28:45.329Z,84.60
2017-12-31T18:31:13.674Z,84.30
2017-12-31T18:33:42.773Z,84.30
2017-12-31T18:36:11.917Z,84.70
2017-12-31T18:38:39.736Z,84.60
2017-12-31T18:41:07.323Z,84.40
2017-12-31T18:43:35.670Z,84.20
2017-12-31T18:46:03.829Z,84.20
2017-12-31T18:48:31.526Z,84.50
2017-12-31T18:50:59.875Z,84.30
2017-12-31T18:53:27.491Z,84.30
2017-12-31T18:55:55.096Z,84.20
2017-12-31T18:58:22.713Z,84.50
2017-12-31T19:00:50.278Z,84.50
2017-12-31T19:03:18.280Z,84.20
2017-12-31T19:05:45.870Z,84.00
2017-12-31T19:08:13.471Z,83.80
2017-12-31T19:10:41.085Z,84.30
2017-12-31T19:13:08.657Z,84.10
2017-12-31T19:15:36.285Z,83.80
2017-12-31T19:18:03.872Z,83.90
2017-12-31T19:20:32.728Z,84.80
2017-12-31T19:23:00.325Z,84.00
2017-12-31T19:25:27.901Z,84.00
2017-12-31T19:27:56.327Z,83.80
2017-12-31T19:30:23.924Z,83.80
2017-12-31T19:32:51.546Z,84.00
2017-12-31T19:35:19.129Z,84.00
2017-12-31T19:37:46.776Z,84.10
2017-12-31T19:40:14.358Z,84.10
2017-12-31T19:42:41.973Z,84.10
2017-12-31T19:45:09.588Z,84.10
2017-12-31T19:47:37.948Z,84.00
2017-12-31T19:50:05.561Z,83.90
2017-12-31T19:52:33.143Z,83.90
2017-12-31T19:55:00.772Z,83.90
2017-12-31T19:57:28.358Z,83.60
2017-12-31T19:59:56.362Z,83.60
2017-12-31T20:02:23.948Z,83.50
2017-12-31T20:04:51.566Z,83.40
2017-12-31T20:07:19.184Z,83.30
2017-12-31T20:09:46.765Z,83.30
2017-12-31T20:12:14.376Z,83.30
2017-12-31T20:14:42.728Z,83.50
2017-12-31T20:17:10.339Z,83.40
2017-12-31T20:19:37.935Z,83.40
2017-12-31T20:22:05.580Z,83.30
2017-12-31T20:24:33.182Z,83.40
2017-12-31T20:27:00.800Z,83.40
2017-12-31T20:29:28.416Z,83.40
2017-12-31T20:31:55.988Z,82.80
2017-12-31T20:34:24.553Z,83.50
2017-12-31T20:36:53.656Z,83.30
2017-12-31T20:39:21.562Z,83.40
2017-12-31T20:41:49.140Z,83.20
2017-12-31T20:44:16.741Z,83.30
2017-12-31T20:46:45.144Z,83.30
2017-12-31T20:49:12.729Z,83.30
2017-12-31T20:51:40.338Z,83.30
2017-12-31T20:54:07.925Z,83.20
2017-12-31T20:56:35.532Z,83.30
2017-12-31T20:59:03.229Z,83.20
2017-12-31T21:01:30.982Z,83.20
2017-12-31T21:03:58.606Z,83.10
2017-12-31T21:06:26.193Z,82.90
2017-12-31T21:08:53.837Z,83.10
2017-12-31T21:11:21.417Z,83.20
2017-12-31T21:13:49.065Z,83.20
2017-12-31T21:16:16.654Z,83.20
2017-12-31T21:18:44.393Z,83.20
2017-12-31T21:21:12.022Z,83.20
2017-12-31T21:23:39.591Z,83.10
2017-12-31T21:26:07.270Z,82.50
2017-12-31T21:28:34.867Z,83.00
2017-12-31T21:31:02.539Z,82.30
2017-12-31T21:33:30.932Z,83.00
2017-12-31T21:35:58.522Z,83.00
2017-12-31T21:38:26.167Z,83.10
2017-12-31T21:40:53.784Z,83.20
2017-12-31T21:43:22.616Z,82.60
2017-12-31T21:45:50.214Z,82.60
2017-12-31T21:48:17.892Z,82.60
2017-12-31T21:50:45.509Z,82.80
2017-12-31T21:53:13.093Z,82.90
2017-12-31T21:55:40.711Z,83.10
2017-12-31T21:58:08.288Z,83.00
2017-12-31T22:00:35.920Z,83.00
2017-12-31T22:03:03.506Z,83.00
2017-12-31T22:05:31.102Z,83.00
2017-12-31T22:08:00.237Z,82.90
2017-12-31T22:10:27.828Z,83.00
2017-12-31T22:12:55.501Z,83.00
2017-12-31T22:15:23.099Z,82.90
2017-12-31T22:17:51.738Z,82.90
2017-12-31T22:20:19.314Z,82.90
2017-12-31T22:22:46.894Z,82.90
2017-12-31T22:25:14.513Z,82.90
2017-12-31T22:27:42.161Z,83.00
2017-12-31T22:30:10.035Z,82.90
2017-12-31T22:32:37.633Z,82.90
2017-12-31T22:35:06.772Z,82.90
2017-12-31T22:37:34.358Z,82.80
2017-12-31T22:40:02.039Z,82.80
2017-12-31T22:42:29.622Z,82.80
2017-12-31T22:44:57.207Z,82.80
2017-12-31T22:47:24.812Z,82.90
2017-12-31T22:49:52.386Z,82.60
2017-12-31T22:52:19.996Z,82.60
2017-12-31T22:54:47.576Z,82.80
2017-12-31T22:57:15.224Z,82.60
2017-12-31T22:59:42.789Z,82.60
2017-12-31T23:02:10.724Z,82.90
2017-12-31T23:04:38.296Z,82.40
2017-12-31T23:07:05.902Z,82.50
2017-12-31T23:09:33.557Z,82.30
2017-12-31T23:12:01.173Z,82.30
2017-12-31T23:14:28.805Z,82.30
2017-12-31T23:16:56.393Z,82.10
2017-12-31T23:19:24.786Z,81.80
2017-12-31T23:21:52.466Z,81.80
2017-12-31T23:24:20.094Z,82.00
2017-12-31T23:26:48.452Z,81.30
2017-12-31T23:29:16.145Z,81.30
2017-12-31T23:31:43.834Z,81.70
2017-12-31T23:34:11.432Z,81.40
2017-12-31T23:36:39.063Z,81.50
2017-12-31T23:39:06.655Z,81.50
2017-12-31T23:41:34.267Z,80.90
2017-12-31T23:44:02.014Z,80.80
2017-12-31T23:46:29.764Z,81.00
2017-12-31T23:48:58.231Z,81.10
2017-12-31T23:51:25.795Z,81.00
2017-12-31T23:53:53.441Z,81.00
2017-12-31T23:56:21.032Z,81.00
2017-12-31T23:58:49.392Z,80.50
